Time;durP1;ratioP1;P1;durP2;ratioP2;P2;SDS_P1;SDS_P2;PMS_P1;PMS_P2;Temp;Humidity;BMP_temperature;BMP_pressure;BME280_temperature;BME280_humidity;BME280_pressure;Samples;Min_cycle;Max_cycle;Signal;HPM_P1;HPM_P2
2022/07/22 00:01:05;;;;;;;;;;;26.10;99.90;;;;;;5093608;28;20267;-71
2022/07/22 00:03:31;;;;;;;;;;;26.10;99.90;;;;;;5093267;28;19904;-71
2022/07/22 00:05:57;;;;;;;;;;;26.20;99.90;;;;;;5093668;28;19961;-71
2022/07/22 00:08:22;;;;;;;;;;;26.10;99.90;;;;;;5093241;28;19969;-71
2022/07/22 00:10:48;;;;;;;;;;;26.10;99.90;;;;;;5093289;28;19911;-71
2022/07/22 00:13:14;;;;;;;;;;;26.10;99.90;;;;;;5093354;28;19985;-71
2022/07/22 00:15:40;;;;;;;;;;;26.10;99.90;;;;;;5091260;28;19923;-71
2022/07/22 00:18:06;;;;;;;;;;;26.10;99.90;;;;;;5093044;28;20383;-71
2022/07/22 00:20:31;;;;;;;;;;;26.10;99.90;;;;;;5093172;28;20399;-71
2022/07/22 00:22:57;;;;;;;;;;;26.10;99.90;;;;;;5093239;28;19948;-71
2022/07/22 00:25:23;;;;;;;;;;;26.10;99.90;;;;;;5092848;28;19927;-71
2022/07/22 00:27:49;;;;;;;;;;;26.10;99.90;;;;;;5093123;28;20260;-71
2022/07/22 00:30:15;;;;;;;;;;;26.10;99.90;;;;;;5092922;28;19904;-71
2022/07/22 00:32:41;;;;;;;;;;;26.00;99.90;;;;;;5093198;28;19968;-71
2022/07/22 00:35:08;;;;;;;;;;;26.00;99.90;;;;;;5092584;28;19958;-71
2022/07/22 00:37:34;;;;;;;;;;;26.00;99.90;;;;;;5092734;28;19958;-72
2022/07/22 00:40:00;;;;;;;;;;;26.00;99.90;;;;;;5092601;28;19957;-71
2022/07/22 00:42:26;;;;;;;;;;;25.90;99.90;;;;;;5092860;28;19908;-71
2022/07/22 00:44:51;;;;;;;;;;;25.90;99.90;;;;;;5092949;28;19912;-71
2022/07/22 00:47:17;;;;;;;;;;;25.90;99.90;;;;;;5090923;28;19904;-71
2022/07/22 00:49:43;;;;;;;;;;;25.90;99.90;;;;;;5092373;28;19905;-71
2022/07/22 00:52:09;;;;;;;;;;;25.90;99.90;;;;;;5092264;28;19912;-71
2022/07/22 00:54:36;;;;;;;;;;;25.90;99.90;;;;;;5090698;28;20228;-71
2022/07/22 00:57:02;;;;;;;;;;;25.80;99.90;;;;;;5092171;28;19980;-71
2022/07/22 00:59:28;;;;;;;;;;;25.80;99.90;;;;;;5092367;28;20373;-71
2022/07/22 01:01:54;;;;;;;;;;;25.80;99.90;;;;;;5092112;28;19908;-72
2022/07/22 01:04:20;;;;;;;;;;;25.80;99.90;;;;;;5092135;28;19947;-71
2022/07/22 01:06:46;;;;;;;;;;;25.80;99.90;;;;;;5092130;28;19907;-71
2022/07/22 01:09:12;;;;;;;;;;;25.70;99.90;;;;;;5092137;28;20046;-71
2022/07/22 01:11:39;;;;;;;;;;;25.70;99.90;;;;;;5092384;28;19911;-71
2022/07/22 01:14:05;;;;;;;;;;;25.70;99.90;;;;;;5092003;28;19908;-71
2022/07/22 01:16:31;;;;;;;;;;;25.70;99.90;;;;;;5091667;28;19912;-71
2022/07/22 01:18:58;;;;;;;;;;;25.70;99.90;;;;;;5092051;28;19912;-71
2022/07/22 01:21:24;;;;;;;;;;;25.70;99.90;;;;;;5091840;28;20003;-71
2022/07/22 01:23:50;;;;;;;;;;;25.60;99.90;;;;;;5091896;28;19991;-71
2022/07/22 01:26:17;;;;;;;;;;;25.50;99.90;;;;;;5091609;28;19934;-71
2022/07/22 01:28:43;;;;;;;;;;;25.40;99.90;;;;;;5092000;28;20217;-71
2022/07/22 01:31:09;;;;;;;;;;;25.30;99.90;;;;;;5091606;28;20358;-71
2022/07/22 01:33:34;;;;;;;;;;;25.30;99.90;;;;;;5091345;28;19907;-71
2022/07/22 01:36:00;;;;;;;;;;;25.30;99.90;;;;;;5091638;28;19912;-71
2022/07/22 01:38:26;;;;;;;;;;;25.40;99.90;;;;;;5091500;28;20276;-71
2022/07/22 01:40:52;;;;;;;;;;;25.50;99.90;;;;;;5091401;28;19915;-71
2022/07/22 01:43:20;;;;;;;;;;;25.50;99.90;;;;;;5091477;28;19911;-71
2022/07/22 01:45:47;;;;;;;;;;;25.50;99.90;;;;;;5091061;28;19904;-70
2022/07/22 01:48:13;;;;;;;;;;;25.40;99.90;;;;;;5091223;28;19915;-71
2022/07/22 01:50:39;;;;;;;;;;;25.30;99.90;;;;;;5091294;28;19904;-71
2022/07/22 01:53:05;;;;;;;;;;;25.30;99.90;;;;;;5091128;28;19914;-71
2022/07/22 01:55:31;;;;;;;;;;;25.40;99.90;;;;;;5091167;28;20006;-71
2022/07/22 01:57:57;;;;;;;;;;;25.30;99.90;;;;;;5089445;28;19986;-71
2022/07/22 02:00:22;;;;;;;;;;;25.30;99.90;;;;;;5091010;28;19904;-71
2022/07/22 02:02:48;;;;;;;;;;;25.40;99.90;;;;;;5091252;28;19904;-70
2022/07/22 02:05:14;;;;;;;;;;;25.50;99.90;;;;;;5090970;28;20017;-70
2022/07/22 02:07:40;;;;;;;;;;;25.50;99.90;;;;;;5090503;28;19934;-71
2022/07/22 02:10:07;;;;;;;;;;;25.50;99.90;;;;;;5090788;28;20000;-71
2022/07/22 02:12:33;;;;;;;;;;;25.50;99.90;;;;;;5091032;28;19919;-72
2022/07/22 02:14:59;;;;;;;;;;;25.50;99.90;;;;;;5089726;28;19916;-71
2022/07/22 02:17:25;;;;;;;;;;;25.40;99.90;;;;;;5090696;28;20357;-71
2022/07/22 02:19:50;;;;;;;;;;;25.40;99.90;;;;;;5089048;28;19915;-71
2022/07/22 02:22:16;;;;;;;;;;;25.40;99.90;;;;;;5089338;28;20351;-71
2022/07/22 02:24:42;;;;;;;;;;;25.30;99.90;;;;;;5090800;28;20340;-72
2022/07/22 02:27:08;;;;;;;;;;;25.20;99.90;;;;;;5090718;28;19903;-71
2022/07/22 02:29:34;;;;;;;;;;;25.20;99.90;;;;;;5090796;28;20031;-70
2022/07/22 02:32:00;;;;;;;;;;;25.20;99.90;;;;;;5088737;28;19904;-71
2022/07/22 02:34:26;;;;;;;;;;;25.30;99.90;;;;;;5090610;28;19943;-71
2022/07/22 02:36:52;;;;;;;;;;;25.30;99.90;;;;;;5090428;28;19924;-71
2022/07/22 02:39:17;;;;;;;;;;;25.30;99.90;;;;;;5089025;28;19935;-71
2022/07/22 02:41:43;;;;;;;;;;;25.30;99.90;;;;;;5090633;28;19963;-71
2022/07/22 02:44:09;;;;;;;;;;;25.20;99.90;;;;;;5090332;28;19926;-71
2022/07/22 02:46:36;;;;;;;;;;;25.30;99.90;;;;;;5090697;28;19991;-71
2022/07/22 02:49:04;;;;;;;;;;;25.30;99.90;;;;;;5090373;28;20246;-70
2022/07/22 02:51:30;;;;;;;;;;;25.30;99.90;;;;;;5090602;28;19908;-72
2022/07/22 02:53:55;;;;;;;;;;;25.40;99.90;;;;;;5090918;28;19957;-71
2022/07/22 02:56:21;;;;;;;;;;;25.40;99.90;;;;;;5090797;28;20053;-71
2022/07/22 02:58:47;;;;;;;;;;;25.40;99.90;;;;;;5090873;28;19979;-72
2022/07/22 03:01:13;;;;;;;;;;;25.40;99.90;;;;;;5090691;28;19904;-73
2022/07/22 03:03:39;;;;;;;;;;;25.40;99.90;;;;;;5090673;28;20363;-72
2022/07/22 03:06:04;;;;;;;;;;;25.40;99.90;;;;;;5090714;28;20004;-71
2022/07/22 03:08:30;;;;;;;;;;;25.30;99.90;;;;;;5090144;28;19969;-71
2022/07/22 03:10:56;;;;;;;;;;;25.30;99.90;;;;;;5091006;28;19904;-72
2022/07/22 03:13:22;;;;;;;;;;;25.30;99.90;;;;;;5090710;28;20085;-71
2022/07/22 03:15:48;;;;;;;;;;;25.20;99.90;;;;;;5090635;28;19971;-71
2022/07/22 03:18:14;;;;;;;;;;;25.20;99.90;;;;;;5090539;28;20291;-71
2022/07/22 03:20:39;;;;;;;;;;;25.20;99.90;;;;;;5092872;28;19911;-71
2022/07/22 03:23:05;;;;;;;;;;;25.20;99.90;;;;;;5095108;28;20332;-71
2022/07/22 03:25:33;;;;;;;;;;;25.10;99.90;;;;;;5094965;28;19920;-72
2022/07/22 03:27:59;;;;;;;;;;;25.10;99.90;;;;;;5095238;28;19904;-72
2022/07/22 03:30:25;;;;;;;;;;;25.20;99.90;;;;;;5095157;28;19949;-71
2022/07/22 03:32:51;;;;;;;;;;;25.20;99.90;;;;;;5094812;28;19951;-71
2022/07/22 03:35:17;;;;;;;;;;;25.30;99.90;;;;;;5093395;28;19914;-71
2022/07/22 03:37:43;;;;;;;;;;;25.40;99.90;;;;;;5094750;28;19912;-71
2022/07/22 03:40:09;;;;;;;;;;;25.40;99.90;;;;;;5094477;28;20037;-71
2022/07/22 03:42:35;;;;;;;;;;;25.40;99.90;;;;;;5095014;28;19955;-71
2022/07/22 03:45:00;;;;;;;;;;;25.40;99.90;;;;;;5094553;28;19904;-71
2022/07/22 03:47:26;;;;;;;;;;;25.30;99.90;;;;;;5094703;28;19999;-71
2022/07/22 03:49:52;;;;;;;;;;;25.30;99.90;;;;;;5094987;28;19960;-71
2022/07/22 03:52:18;;;;;;;;;;;25.30;99.90;;;;;;5094916;28;20395;-71
2022/07/22 03:54:44;;;;;;;;;;;25.20;99.90;;;;;;5094837;28;19931;-71
2022/07/22 03:57:10;;;;;;;;;;;25.20;99.90;;;;;;5095103;28;19912;-72
2022/07/22 03:59:36;;;;;;;;;;;25.20;99.90;;;;;;5094852;28;19941;-72
2022/07/22 04:02:03;;;;;;;;;;;25.20;99.90;;;;;;5094928;28;19903;-71
2022/07/22 04:04:29;;;;;;;;;;;25.20;99.90;;;;;;5094424;28;20417;-71
2022/07/22 04:06:55;;;;;;;;;;;25.10;99.90;;;;;;5094673;28;19908;-70
2022/07/22 04:09:20;;;;;;;;;;;25.10;99.90;;;;;;5094381;28;19950;-71
2022/07/22 04:11:46;;;;;;;;;;;25.10;99.90;;;;;;5094635;28;19947;-71
2022/07/22 04:14:12;;;;;;;;;;;25.10;99.90;;;;;;5094525;28;20003;-71
2022/07/22 04:16:39;;;;;;;;;;;25.20;99.90;;;;;;5095120;28;20257;-70
2022/07/22 04:19:05;;;;;;;;;;;25.30;99.90;;;;;;5096117;28;20026;-71
2022/07/22 04:21:31;;;;;;;;;;;25.40;99.90;;;;;;5095787;28;19914;-71
2022/07/22 04:23:56;;;;;;;;;;;25.40;99.90;;;;;;5096232;28;20268;-71
2022/07/22 04:26:22;;;;;;;;;;;25.50;99.90;;;;;;5095732;28;19911;-71
2022/07/22 04:28:48;;;;;;;;;;;25.40;99.90;;;;;;5095665;28;19904;-71
2022/07/22 04:31:14;;;;;;;;;;;25.50;99.90;;;;;;5095343;28;19904;-71
2022/07/22 04:33:40;;;;;;;;;;;25.60;99.90;;;;;;5095772;28;19976;-71
2022/07/22 04:36:06;;;;;;;;;;;25.70;99.90;;;;;;5096130;28;20386;-71
2022/07/22 04:38:32;;;;;;;;;;;25.60;99.90;;;;;;5095616;28;19947;-71
2022/07/22 04:40:58;;;;;;;;;;;25.70;99.90;;;;;;5095780;28;19951;-71
2022/07/22 04:43:23;;;;;;;;;;;25.70;99.90;;;;;;5096250;28;19904;-72
2022/07/22 04:45:49;;;;;;;;;;;25.80;99.90;;;;;;5095523;28;20007;-71
2022/07/22 04:48:15;;;;;;;;;;;25.80;99.90;;;;;;5096493;28;19933;-72
2022/07/22 04:50:41;;;;;;;;;;;25.80;99.90;;;;;;5096255;28;19911;-71
2022/07/22 04:53:07;;;;;;;;;;;25.90;99.90;;;;;;5095315;28;20295;-71
2022/07/22 04:55:33;;;;;;;;;;;26.00;99.90;;;;;;5095313;28;19926;-73
2022/07/22 04:57:58;;;;;;;;;;;26.10;99.90;;;;;;5095536;28;19908;-71
2022/07/22 05:00:24;;;;;;;;;;;26.30;99.90;;;;;;5095520;28;19915;-71
2022/07/22 05:02:51;;;;;;;;;;;26.40;99.90;;;;;;5095576;28;20270;-71
2022/07/22 05:05:17;;;;;;;;;;;26.50;99.90;;;;;;5095167;28;20290;-71
2022/07/22 05:07:43;;;;;;;;;;;26.60;99.90;;;;;;5095591;28;19950;-71
2022/07/22 05:10:09;;;;;;;;;;;26.80;99.90;;;;;;5095164;28;19904;-70
2022/07/22 05:12:34;;;;;;;;;;;26.90;99.90;;;;;;5094912;28;19912;-72
2022/07/22 05:15:00;;;;;;;;;;;27.60;99.90;;;;;;5094440;28;19904;-71
2022/07/22 05:17:26;;;;;;;;;;;29.30;99.90;;;;;;5093253;28;19923;-71
2022/07/22 05:19:52;;;;;;;;;;;31.30;99.90;;;;;;5094699;28;20208;-72
2022/07/22 05:22:18;;;;;;;;;;;33.00;99.90;;;;;;5094424;28;19947;-71
2022/07/22 05:24:44;;;;;;;;;;;34.30;96.80;;;;;;5094228;28;19904;-71
2022/07/22 05:27:09;;;;;;;;;;;34.60;94.80;;;;;;5094221;28;19950;-71
2022/07/22 05:29:35;;;;;;;;;;;34.90;93.90;;;;;;5093895;28;19965;-71
2022/07/22 05:32:01;;;;;;;;;;;34.80;93.00;;;;;;5094045;28;19939;-71
2022/07/22 05:34:27;;;;;;;;;;;35.50;91.90;;;;;;5093697;28;20262;-72
2022/07/22 05:36:53;;;;;;;;;;;35.80;91.00;;;;;;5092257;28;19966;-72
2022/07/22 05:39:18;;;;;;;;;;;36.30;90.30;;;;;;5093713;28;19929;-72
2022/07/22 05:41:44;;;;;;;;;;;36.30;90.10;;;;;;5093952;28;19926;-72
2022/07/22 05:44:10;;;;;;;;;;;37.10;86.70;;;;;;5093155;28;20264;-72
2022/07/22 05:46:36;;;;;;;;;;;37.00;85.70;;;;;;5093718;28;20006;-72
2022/07/22 05:49:02;;;;;;;;;;;37.00;84.00;;;;;;5094047;28;20256;-71
2022/07/22 05:51:28;;;;;;;;;;;37.60;82.80;;;;;;5092335;28;19904;-72
2022/07/22 05:53:54;;;;;;;;;;;38.00;80.60;;;;;;5093565;28;19911;-72
2022/07/22 05:56:19;;;;;;;;;;;38.00;79.50;;;;;;5093427;28;20044;-71
2022/07/22 05:58:45;;;;;;;;;;;38.50;79.00;;;;;;5092457;28;19908;-71
2022/07/22 06:01:23;;;;;;;;;;;39.50;76.10;;;;;;5094042;28;19904;-71
2022/07/22 06:03:50;;;;;;;;;;;40.00;75.20;;;;;;5093445;28;20264;-71
2022/07/22 06:06:15;;;;;;;;;;;40.70;72.20;;;;;;5093410;28;19916;-71
2022/07/22 06:08:41;;;;;;;;;;;40.10;73.10;;;;;;5093892;28;19904;-72
2022/07/22 06:11:07;;;;;;;;;;;40.40;72.80;;;;;;5093989;28;19927;-71
2022/07/22 06:13:33;;;;;;;;;;;40.90;70.40;;;;;;5093684;28;19957;-71
2022/07/22 06:15:59;;;;;;;;;;;40.70;70.00;;;;;;5093412;28;20014;-71
2022/07/22 06:18:26;;;;;;;;;;;41.00;70.00;;;;;;5093597;28;20032;-71
2022/07/22 06:20:52;;;;;;;;;;;42.10;67.30;;;;;;5094219;28;19911;-72
2022/07/22 06:23:17;;;;;;;;;;;42.10;65.80;;;;;;5093857;28;19904;-71
2022/07/22 06:25:43;;;;;;;;;;;42.40;65.60;;;;;;5093811;28;19984;-72
2022/07/22 06:28:10;;;;;;;;;;;42.20;65.50;;;;;;5093595;28;20328;-71
2022/07/22 06:30:36;;;;;;;;;;;42.80;63.90;;;;;;5094160;28;19939;-72
2022/07/22 06:33:02;;;;;;;;;;;43.30;63.30;;;;;;5093952;28;19972;-72
2022/07/22 06:35:28;;;;;;;;;;;43.40;62.10;;;;;;5093836;28;20355;-71
2022/07/22 06:37:54;;;;;;;;;;;44.40;59.60;;;;;;5093644;28;19904;-72
2022/07/22 06:40:19;;;;;;;;;;;45.10;58.70;;;;;;5093528;28;20299;-72
2022/07/22 06:42:45;;;;;;;;;;;45.20;57.00;;;;;;5093241;28;19915;-72
2022/07/22 06:45:11;;;;;;;;;;;44.60;57.30;;;;;;5093374;28;19904;-72
2022/07/22 06:47:37;;;;;;;;;;;44.50;56.10;;;;;;5093249;28;19904;-72
2022/07/22 06:50:03;;;;;;;;;;;42.30;57.30;;;;;;5091890;28;19904;-72
2022/07/22 06:52:30;;;;;;;;;;;43.10;58.20;;;;;;5093222;28;19910;-72
2022/07/22 06:54:56;;;;;;;;;;;44.50;60.00;;;;;;5093140;28;19908;-72
2022/07/22 06:57:21;;;;;;;;;;;45.90;58.90;;;;;;5091569;28;19942;-72
2022/07/22 06:59:47;;;;;;;;;;;46.00;57.60;;;;;;5093537;28;19929;-72
2022/07/22 07:02:13;;;;;;;;;;;46.40;57.00;;;;;;5092969;28;20378;-73
2022/07/22 07:04:39;;;;;;;;;;;46.70;55.80;;;;;;5092927;28;19904;-73
2022/07/22 07:07:04;;;;;;;;;;;47.10;55.80;;;;;;5092998;28;20361;-72
2022/07/22 07:09:30;;;;;;;;;;;47.80;54.50;;;;;;5093180;28;19949;-72
2022/07/22 07:11:56;;;;;;;;;;;47.40;54.30;;;;;;5092833;28;19904;-72
2022/07/22 07:14:22;;;;;;;;;;;47.90;52.90;;;;;;5093091;28;19904;-72
2022/07/22 07:16:48;;;;;;;;;;;47.90;52.50;;;;;;5092578;28;19916;-72
2022/07/22 07:19:13;;;;;;;;;;;47.70;52.50;;;;;;5093281;28;19910;-72
2022/07/22 07:21:39;;;;;;;;;;;47.30;53.10;;;;;;5093111;28;19925;-72
2022/07/22 07:24:05;;;;;;;;;;;46.30;53.20;;;;;;5093332;28;19923;-72
2022/07/22 07:26:31;;;;;;;;;;;46.10;53.70;;;;;;5092812;28;19948;-71
2022/07/22 07:28:57;;;;;;;;;;;45.30;55.40;;;;;;5092782;28;20352;-72
2022/07/22 07:31:23;;;;;;;;;;;44.00;56.90;;;;;;5093191;28;19904;-73
2022/07/22 07:33:48;;;;;;;;;;;43.00;59.00;;;;;;5092656;28;20010;-72
2022/07/22 07:36:14;;;;;;;;;;;41.60;60.80;;;;;;5092605;28;19982;-72
2022/07/22 07:38:40;;;;;;;;;;;41.00;63.00;;;;;;5092946;28;20006;-71
2022/07/22 07:41:06;;;;;;;;;;;40.90;63.10;;;;;;5092717;28;19986;-72
2022/07/22 07:43:32;;;;;;;;;;;40.60;64.00;;;;;;5092355;28;19908;-71
2022/07/22 07:45:58;;;;;;;;;;;40.30;65.20;;;;;;5092478;28;19948;-71
2022/07/22 07:48:24;;;;;;;;;;;40.10;66.50;;;;;;5092620;28;19904;-71
2022/07/22 07:50:49;;;;;;;;;;;39.50;68.30;;;;;;5092077;28;19903;-72
2022/07/22 07:53:16;;;;;;;;;;;39.00;69.00;;;;;;5091709;28;20472;-70
2022/07/22 07:55:42;;;;;;;;;;;38.70;69.60;;;;;;5090368;28;20380;-71
2022/07/22 07:58:08;;;;;;;;;;;38.50;71.50;;;;;;5090884;28;19986;-73
2022/07/22 08:00:34;;;;;;;;;;;38.50;71.70;;;;;;5092361;28;20008;-73
2022/07/22 08:03:00;;;;;;;;;;;38.50;72.30;;;;;;5091855;28;19904;-70
2022/07/22 08:05:26;;;;;;;;;;;38.40;72.20;;;;;;5092239;28;19912;-72
2022/07/22 08:07:52;;;;;;;;;;;38.30;72.60;;;;;;5095589;28;20261;-72
2022/07/22 08:10:18;;;;;;;;;;;38.20;73.20;;;;;;5094363;28;19925;-72
2022/07/22 08:12:43;;;;;;;;;;;37.80;74.20;;;;;;5095705;28;19935;-72
2022/07/22 08:15:10;;;;;;;;;;;37.60;74.80;;;;;;5095624;28;19910;-72
2022/07/22 08:17:36;;;;;;;;;;;37.50;75.20;;;;;;5095263;28;20307;-71
2022/07/22 08:20:02;;;;;;;;;;;37.00;76.70;;;;;;5095840;28;19904;-71
2022/07/22 08:22:28;;;;;;;;;;;37.10;77.40;;;;;;5094606;28;19904;-71
2022/07/22 08:24:54;;;;;;;;;;;37.30;77.40;;;;;;5095143;28;20269;-72
2022/07/22 08:27:20;;;;;;;;;;;37.30;77.30;;;;;;5094426;28;19904;-71
2022/07/22 08:29:46;;;;;;;;;;;37.10;77.60;;;;;;5095710;28;19980;-71
2022/07/22 08:32:12;;;;;;;;;;;37.10;78.70;;;;;;5096053;28;19904;-72
2022/07/22 08:34:38;;;;;;;;;;;36.90;78.90;;;;;;5095760;28;19943;-71
2022/07/22 08:37:04;;;;;;;;;;;36.90;79.10;;;;;;5095556;28;19912;-71
2022/07/22 08:39:29;;;;;;;;;;;37.00;79.80;;;;;;5094212;28;19962;-72
2022/07/22 08:41:56;;;;;;;;;;;37.20;79.40;;;;;;5095606;28;19934;-72
2022/07/22 08:44:22;;;;;;;;;;;37.00;79.80;;;;;;5095439;28;19904;-71
2022/07/22 08:46:47;;;;;;;;;;;37.20;80.30;;;;;;5095055;28;19914;-72
2022/07/22 08:49:14;;;;;;;;;;;36.90;79.90;;;;;;5095450;28;19911;-71
2022/07/22 08:51:40;;;;;;;;;;;36.20;81.60;;;;;;5094783;28;19912;-71
2022/07/22 08:54:06;;;;;;;;;;;36.30;82.90;;;;;;5094093;28;19920;-72
2022/07/22 08:56:32;;;;;;;;;;;36.30;83.50;;;;;;5094427;28;20387;-71
2022/07/22 08:58:58;;;;;;;;;;;36.50;84.00;;;;;;5095220;28;19943;-70
2022/07/22 09:01:23;;;;;;;;;;;36.70;85.30;;;;;;5094643;28;19904;-71
2022/07/22 09:03:55;;;;;;;;;;;36.90;85.50;;;;;;5094856;28;19911;-71
2022/07/22 09:06:22;;;;;;;;;;;36.90;85.20;;;;;;5094999;28;20052;-71
2022/07/22 09:08:52;;;;;;;;;;;37.00;85.70;;;;;;5094487;28;19915;-72
2022/07/22 09:11:19;;;;;;;;;;;36.70;86.10;;;;;;5092993;28;19904;-71
2022/07/22 09:13:45;;;;;;;;;;;36.50;86.70;;;;;;5094763;28;20033;-72
2022/07/22 09:16:11;;;;;;;;;;;36.70;86.80;;;;;;5094093;28;19938;-72
2022/07/22 09:18:47;;;;;;;;;;;36.60;85.60;;;;;;5092955;28;19929;-72
2022/07/22 09:21:13;;;;;;;;;;;36.50;84.80;;;;;;5094607;28;19908;-72
2022/07/22 09:23:40;;;;;;;;;;;36.40;83.70;;;;;;5092434;28;19980;-71
2022/07/22 09:26:06;;;;;;;;;;;35.80;85.20;;;;;;5092729;28;19919;-72
2022/07/22 09:28:32;;;;;;;;;;;35.20;86.20;;;;;;5094556;28;19926;-72
2022/07/22 09:30:58;;;;;;;;;;;35.00;86.50;;;;;;5094138;28;19907;-72
2022/07/22 09:33:24;;;;;;;;;;;35.10;87.10;;;;;;5093803;28;19957;-71
2022/07/22 09:35:50;;;;;;;;;;;35.00;87.60;;;;;;5093827;28;20382;-72
2022/07/22 09:38:17;;;;;;;;;;;34.90;88.40;;;;;;5093549;28;19908;-72
2022/07/22 09:40:44;;;;;;;;;;;34.90;88.30;;;;;;5093428;28;19904;-72
2022/07/22 09:43:12;;;;;;;;;;;34.80;87.70;;;;;;5093592;28;20078;-72
2022/07/22 09:45:57;;;;;;;;;;;34.20;87.80;;;;;;5093348;28;19911;-72
2022/07/22 09:48:23;;;;;;;;;;;34.20;90.10;;;;;;5091928;28;20314;-72
2022/07/22 09:50:50;;;;;;;;;;;34.10;89.30;;;;;;5092033;28;19904;-72
2022/07/22 09:53:19;;;;;;;;;;;34.20;89.80;;;;;;5094163;28;19961;-71
2022/07/22 09:55:45;;;;;;;;;;;34.20;89.40;;;;;;5093511;28;20383;-72
2022/07/22 09:58:12;;;;;;;;;;;34.40;87.90;;;;;;5093383;28;19912;-71
2022/07/22 10:00:38;;;;;;;;;;;34.60;87.10;;;;;;5093467;28;20371;-72
2022/07/22 10:03:08;;;;;;;;;;;34.40;88.90;;;;;;5093336;28;20414;-71
2022/07/22 10:05:36;;;;;;;;;;;34.40;89.00;;;;;;5091881;28;20375;-72
2022/07/22 10:08:03;;;;;;;;;;;34.40;90.30;;;;;;5093682;28;20272;-71
2022/07/22 10:10:29;;;;;;;;;;;34.40;90.10;;;;;;5093614;28;19999;-73
2022/07/22 10:12:56;;;;;;;;;;;34.30;90.70;;;;;;5093570;28;19958;-71
2022/07/22 10:15:23;;;;;;;;;;;34.00;90.90;;;;;;5093587;28;19940;-72
2022/07/22 10:17:51;;;;;;;;;;;34.00;91.00;;;;;;5093043;28;19916;-71
2022/07/22 10:20:18;;;;;;;;;;;34.20;90.50;;;;;;5093215;28;19908;-72
2022/07/22 10:22:46;;;;;;;;;;;34.00;90.90;;;;;;5093117;28;19927;-72
2022/07/22 10:25:13;;;;;;;;;;;33.90;90.20;;;;;;5093453;28;19935;-71
2022/07/22 10:27:51;;;;;;;;;;;33.90;91.40;;;;;;5091881;28;19912;-71
2022/07/22 10:30:19;;;;;;;;;;;33.70;92.00;;;;;;5092565;28;20313;-70
2022/07/22 10:32:45;;;;;;;;;;;33.90;92.50;;;;;;5092802;28;19904;-71
2022/07/22 10:35:11;;;;;;;;;;;33.90;92.30;;;;;;5091520;28;19927;-71
2022/07/22 10:37:44;;;;;;;;;;;33.80;93.50;;;;;;5092951;28;19904;-71
2022/07/22 10:40:20;;;;;;;;;;;33.70;93.40;;;;;;5093285;28;19910;-72
2022/07/22 10:42:58;;;;;;;;;;;33.80;92.50;;;;;;5093743;28;19915;-71
2022/07/22 10:45:24;;;;;;;;;;;33.80;92.70;;;;;;5092686;28;19911;-71
2022/07/22 10:47:54;;;;;;;;;;;33.80;93.30;;;;;;5092804;28;19911;-71
2022/07/22 10:50:35;;;;;;;;;;;33.80;93.20;;;;;;5092457;28;19916;-71
2022/07/22 10:53:05;;;;;;;;;;;34.00;92.10;;;;;;5092498;28;19957;-71
2022/07/22 10:55:31;;;;;;;;;;;33.90;91.30;;;;;;5092158;28;19912;-71
2022/07/22 10:57:57;;;;;;;;;;;33.80;91.40;;;;;;5092974;28;19910;-71
2022/07/22 11:00:23;;;;;;;;;;;34.00;91.00;;;;;;5092447;28;19915;-71
2022/07/22 11:02:48;;;;;;;;;;;34.10;89.10;;;;;;5091437;28;19904;-71
2022/07/22 11:05:24;;;;;;;;;;;34.00;92.70;;;;;;5092596;28;20408;-71
2022/07/22 11:07:50;;;;;;;;;;;34.20;92.80;;;;;;5091033;28;19904;-71
2022/07/22 11:10:16;;;;;;;;;;;34.10;91.60;;;;;;5092382;28;20402;-72
2022/07/22 11:12:43;;;;;;;;;;;34.10;91.40;;;;;;5092485;28;19952;-71
2022/07/22 11:15:09;;;;;;;;;;;33.90;91.60;;;;;;5092494;28;19941;-72
2022/07/22 11:17:36;;;;;;;;;;;33.90;90.80;;;;;;5092193;28;19916;-71
2022/07/22 11:20:06;;;;;;;;;;;34.00;91.00;;;;;;5092855;28;19904;-71
2022/07/22 11:22:32;;;;;;;;;;;34.20;90.00;;;;;;5091456;28;19904;-71
2022/07/22 11:25:00;;;;;;;;;;;34.20;88.10;;;;;;5092610;28;19904;-71
2022/07/22 11:27:26;;;;;;;;;;;34.10;91.90;;;;;;5092648;28;20470;-71
2022/07/22 11:29:52;;;;;;;;;;;34.20;92.70;;;;;;5093222;28;19944;-71
2022/07/22 11:32:19;;;;;;;;;;;34.00;92.50;;;;;;5092547;28;19911;-71
2022/07/22 11:34:46;;;;;;;;;;;33.80;94.00;;;;;;5092602;28;19911;-71
2022/07/22 11:37:16;;;;;;;;;;;33.90;94.40;;;;;;5092511;28;19911;-71
2022/07/22 11:39:42;;;;;;;;;;;34.00;94.10;;;;;;5092874;28;19939;-71
2022/07/22 11:42:07;;;;;;;;;;;33.80;94.30;;;;;;5095274;28;19904;-71
2022/07/22 11:44:36;;;;;;;;;;;33.90;94.30;;;;;;5096858;28;20328;-71
2022/07/22 11:47:02;;;;;;;;;;;33.80;95.40;;;;;;5096503;28;19904;-71
2022/07/22 11:49:29;;;;;;;;;;;34.10;95.20;;;;;;5096445;28;19904;-71
2022/07/22 11:51:55;;;;;;;;;;;34.10;93.60;;;;;;5096156;28;20257;-71
2022/07/22 11:54:21;;;;;;;;;;;34.30;93.50;;;;;;5096323;28;20386;-71
2022/07/22 11:56:47;;;;;;;;;;;34.30;94.30;;;;;;5095808;28;19912;-71
2022/07/22 11:59:17;;;;;;;;;;;34.20;94.90;;;;;;5095957;28;19947;-72
2022/07/22 12:01:44;;;;;;;;;;;34.20;95.60;;;;;;5096058;28;19985;-71
2022/07/22 12:04:11;;;;;;;;;;;34.30;95.30;;;;;;5095885;28;19904;-71
2022/07/22 12:06:39;;;;;;;;;;;33.90;95.80;;;;;;5096048;28;19946;-71
2022/07/22 12:09:09;;;;;;;;;;;34.00;96.40;;;;;;5094868;28;19905;-72
2022/07/22 12:11:37;;;;;;;;;;;33.90;96.50;;;;;;5096337;28;19933;-71
2022/07/22 12:14:12;;;;;;;;;;;33.80;96.20;;;;;;5094600;28;20325;-71
2022/07/22 12:16:38;;;;;;;;;;;33.80;96.90;;;;;;5095489;28;19912;-70
2022/07/22 12:19:05;;;;;;;;;;;33.80;96.00;;;;;;5096099;28;20044;-71
2022/07/22 12:21:33;;;;;;;;;;;33.90;96.40;;;;;;5095607;28;19904;-71
2022/07/22 12:24:06;;;;;;;;;;;34.10;96.70;;;;;;5095803;28;19904;-71
2022/07/22 12:26:38;;;;;;;;;;;34.10;97.00;;;;;;5095999;28;19947;-71
2022/07/22 12:29:22;;;;;;;;;;;34.20;96.20;;;;;;5095818;28;19904;-71
2022/07/22 12:31:56;;;;;;;;;;;34.30;95.70;;;;;;5095988;28;19904;-71
2022/07/22 12:34:30;;;;;;;;;;;34.60;94.50;;;;;;5095324;28;19904;-71
2022/07/22 12:36:56;;;;;;;;;;;34.30;95.60;;;;;;5095620;28;19923;-71
2022/07/22 12:39:22;;;;;;;;;;;34.30;96.00;;;;;;5094958;28;19904;-70
2022/07/22 12:41:49;;;;;;;;;;;34.50;96.20;;;;;;5095676;28;20012;-70
2022/07/22 12:44:19;;;;;;;;;;;34.60;96.30;;;;;;5095033;28;19925;-71
2022/07/22 12:46:46;;;;;;;;;;;34.60;96.00;;;;;;5093887;28;19912;-71
2022/07/22 12:49:12;;;;;;;;;;;34.70;96.20;;;;;;5094143;28;20254;-71
2022/07/22 12:51:38;;;;;;;;;;;34.70;96.50;;;;;;5095503;28;20407;-71
2022/07/22 12:54:04;;;;;;;;;;;34.60;97.00;;;;;;5095301;28;19904;-71
2022/07/22 12:56:30;;;;;;;;;;;34.60;96.90;;;;;;5095103;28;19912;-72
2022/07/22 12:58:56;;;;;;;;;;;34.70;97.00;;;;;;5094726;28;19908;-71
2022/07/22 13:01:22;;;;;;;;;;;34.60;96.20;;;;;;5095499;28;20371;-71
2022/07/22 13:03:48;;;;;;;;;;;34.60;95.50;;;;;;5095057;28;19904;-71
2022/07/22 13:06:15;;;;;;;;;;;34.70;94.50;;;;;;5093278;28;19977;-70
2022/07/22 13:08:41;;;;;;;;;;;34.70;94.40;;;;;;5093271;28;19971;-71
2022/07/22 13:11:06;;;;;;;;;;;34.50;94.80;;;;;;5095258;28;19923;-71
2022/07/22 13:13:32;;;;;;;;;;;34.40;94.30;;;;;;5094689;28;19904;-71
2022/07/22 13:15:58;;;;;;;;;;;34.30;94.60;;;;;;5093019;28;20032;-71
2022/07/22 13:18:24;;;;;;;;;;;34.40;94.60;;;;;;5094704;28;19916;-71
2022/07/22 13:20:50;;;;;;;;;;;34.70;92.80;;;;;;5094631;28;19910;-71
2022/07/22 13:23:16;;;;;;;;;;;34.60;92.30;;;;;;5094503;28;19985;-71
2022/07/22 13:25:42;;;;;;;;;;;34.60;93.50;;;;;;5094687;28;20247;-71
2022/07/22 13:28:07;;;;;;;;;;;34.50;94.70;;;;;;5094784;28;20328;-71
2022/07/22 13:30:33;;;;;;;;;;;34.50;94.80;;;;;;5095222;28;19904;-72
2022/07/22 13:32:59;;;;;;;;;;;34.40;95.70;;;;;;5094486;28;19908;-71
2022/07/22 13:35:26;;;;;;;;;;;34.30;95.90;;;;;;5094959;28;19912;-71
2022/07/22 13:37:52;;;;;;;;;;;34.50;94.80;;;;;;5094301;28;20451;-71
2022/07/22 13:40:17;;;;;;;;;;;34.40;94.90;;;;;;5094241;28;19995;-71
2022/07/22 13:42:43;;;;;;;;;;;34.30;94.70;;;;;;5094366;28;19904;-71
2022/07/22 13:45:12;;;;;;;;;;;34.30;94.60;;;;;;5094252;28;19950;-71
2022/07/22 13:47:41;;;;;;;;;;;34.20;94.40;;;;;;5093984;28;19949;-71
2022/07/22 13:50:07;;;;;;;;;;;34.40;94.40;;;;;;5094011;28;20284;-71
2022/07/22 13:52:34;;;;;;;;;;;34.20;94.60;;;;;;5093886;28;20352;-71
2022/07/22 13:54:59;;;;;;;;;;;34.30;95.30;;;;;;5093138;28;19904;-71
2022/07/22 13:57:25;;;;;;;;;;;34.30;95.10;;;;;;5093142;28;19911;-71
2022/07/22 13:59:51;;;;;;;;;;;34.20;95.10;;;;;;5091972;28;20280;-71
2022/07/22 14:02:17;;;;;;;;;;;34.20;95.10;;;;;;5093452;28;19976;-71
2022/07/22 14:04:43;;;;;;;;;;;34.20;94.90;;;;;;5091509;28;20356;-71
2022/07/22 14:07:08;;;;;;;;;;;34.20;94.70;;;;;;5093471;28;19904;-72
2022/07/22 14:09:34;;;;;;;;;;;34.30;94.50;;;;;;5093416;28;19910;-72
2022/07/22 14:12:00;;;;;;;;;;;34.30;94.40;;;;;;5093334;28;20305;-72